Metar z pełnej godziny Komunikat METAR ze strony awiacja.imgw.pl Metar G00 EPLL METAR EPLL 231300Z 24013KT CAVOK 22/09 Q1011 =